August 14, 2022

Time Code Weather Temp. Visibility Ceiling Wind METAR/SPECI
06:50
L
13 °C 300 m - 210° 210° 2 kt METAR EGQS 140550Z 21002KT 0300 FG OVC000 13/13 Q1012 RMK RED
05:50
L
13 °C 500 m - 210° 210° 1 kt METAR EGQS 140450Z 21001KT 0500 FG OVC000 13/13 Q1012 RMK RED
05:20
L
13 °C 300 m 100 ft 120° 120° 1 kt METAR EGQS 140420Z AUTO 12001KT 0300 FG OVC001/// 13/13 Q1012
04:50
L
13 °C 300 m - 340° 340° 2 kt METAR EGQS 140350Z 34002KT 0300 FG OVC000 13/13 Q1012 RMK RED
04:20
L
13 °C 300 m 200 ft 320° 320° 3 kt METAR EGQS 140320Z AUTO 32003KT 0300 FG OVC002/// 13/13 Q1013
03:50
L
13 °C 500 m 100 ft 300° 300° 3 kt METAR EGQS 140250Z 30003KT 0500 FG OVC001 13/13 Q1013 RMK RED
03:20
L
13 °C 200 m 100 ft 210° 210° 3 kt METAR EGQS 140220Z AUTO 21003KT 0200 FG OVC001/// 13/13 Q1013
02:50
L
13 °C 400 m 100 ft 230° 230° 3 kt METAR EGQS 140150Z 23003KT 0400 FG OVC001 13/13 Q1013 RMK RED
01:50
L
14 °C 400 m - 250° 250° 4 kt METAR EGQS 140050Z 25004KT 0400 FG OVC000 14/14 Q1014 RMK RED
00:50
L
14 °C 800 m - 280° 280° 5 kt METAR EGQS 132350Z 28005KT 0800 FG OVC000 14/14 Q1014 RMK RED

August 13, 2022

Time Code Weather Temp. Visibility Ceiling Wind METAR/SPECI
23:50
L
14 °C 1.2 km 100 ft 290° 290° 5 kt METAR EGQS 132250Z 29005KT 1200 BR OVC001 14/14 Q1015 RMK RED
22:50
L
14 °C 400 m - 280° 280° 5 kt METAR EGQS 132150Z 28005KT 0400 FG OVC000 14/14 Q1015 RMK RED
21:50
L
14 °C 300 m - 290° 290° 5 kt METAR EGQS 132050Z 29005KT 0300 FG VV/// 14/14 Q1015 RMK RED
20:50
L
14 °C 200 m - 340° 340° 2 kt METAR EGQS 131950Z 34002KT 0200 FG VV/// 14/14 Q1015 RMK RED
19:50
L
14 °C 200 m - 050° 050° 4 kt METAR EGQS 131850Z 05004KT 0200 FG VV/// 14/14 Q1015 RMK RED
18:50
L
15 °C 200 m - 050° 050° 5 kt METAR EGQS 131750Z 05005KT 0200 FG VV/// 15/14 Q1016 RMK RED
17:50
L
15 °C 700 m - 040° 040° 6 kt METAR EGQS 131650Z 04006KT 0700 FG VV/// 15/14 Q1016 RMK RED
17:35
L
15 °C 4 km 200 ft 070° 070° 5 kt METAR EGQS 131635Z 07005KT 4000 0700N BR PRFG FEW001 OVC002 15/14 Q1016 RMK RED
16:50
L
15 °C 5 km 300 ft 080° 080° 6 kt METAR EGQS 131550Z 08006KT 5000 1500NW BR FEW002 BKN003 15/13 Q1017 RMK AMB
15:50
L
15 °C 4 km 200 ft 050° 050° 7 kt METAR EGQS 131450Z 05007KT 4000 1200NW BR FEW001 BKN002 15/14 Q1017 RMK AMB
14:50
L
15 °C 5 km 200 ft 050° 050° 8 kt METAR EGQS 131350Z 05008KT 5000 1300NW BR FEW001 OVC002 15/13 Q1018 RMK AMB
14:42
L
15 °C 7 km 200 ft 050° 050° 8 kt METAR EGQS 131342Z 05008KT 7000 1300NW BR FEW001 OVC002 15/13 Q1018 RMK AMB
14:16
L
16 °C 10 km+ 300 ft 040° 040° 7 kt METAR EGQS 131316Z 04007KT 9999 1600N BR FEW002 BKN003 16/14 Q1018 RMK YLO2
13:50
L
15 °C 7 km 300 ft 050° 050° 7 kt METAR EGQS 131250Z 05007KT 7000 1400NW BR FEW002 BKN003 15/13 Q1018 RMK AMB
12:50
L
15 °C 10 km+ 300 ft 030° 030° 6 kt METAR EGQS 131150Z 03006KT 9999 1700NW HZ BKN003 15/13 Q1018 RMK YLO2
11:50
L
14 °C 1.6 km 300 ft 030° 030° 4 kt METAR EGQS 131050Z 03004KT 5000 1600 HZ FEW002 OVC003 14/13 Q1019 RMK YLO2
10:50
L
15 °C 5 km 300 ft 040° 040° 5 kt METAR EGQS 130950Z 04005KT 5000 1600N BR OVC003 15/14 Q1019 RMK YLO2
09:50
L
15 °C 3.8 km 300 ft 290° 290° 2 kt METAR EGQS 130850Z 29002KT 3800 1600N BR OVC003 15/14 Q1019 RMK YLO2
08:50
L
14 °C 3 km 300 ft Var 000° 0 kt METAR EGQS 130750Z 00000KT 3000 1700N BR OVC003 14/14 Q1019 RMK YLO2
07:50
L
14 °C 1.5 km 200 ft Var 000° 0 kt METAR EGQS 130650Z 00000KT 1500 BR OVC002 14/13 Q1019 RMK AMB
07:29
L
14 °C 1.5 km 200 ft 290° 290° 1 kt METAR EGQS 130629Z 29001KT 1500 BR OVC002 14/13 Q1019 RMK AMB
06:50
L
14 °C 1.5 km 100 ft 270° 270° 3 kt METAR EGQS 130550Z 27003KT 1500 BR OVC001 14/14 Q1019 RMK RED
05:50
L
14 °C 800 m 100 ft 290° 290° 5 kt METAR EGQS 130450Z 29005KT 0800 FG OVC001 14/14 Q1019 RMK RED
05:20
I
0 °C 3.6 km - 260° 260° 5 kt METAR EGQS 130420Z AUTO 26005KT 3600 REFG OVC001/// 14/14 Q1019
04:50
L
14 °C 1.6 km 100 ft 230° 230° 5 kt METAR EGQS 130350Z 23005KT 1600 BR OVC001 14/14 Q1019 RMK RED
04:20
L
0 °C 700 m - 230° 230° 7 kt METAR EGQS 130320Z AUTO 23007KT 0700 REFG OVC001/// 14/14 Q1019
03:50
L
14 °C 1 km 100 ft 220° 220° 5 kt METAR EGQS 130250Z 22005KT 1000 BR OVC001 14/14 Q1019 RMK RED
03:20
L
14 °C 4.1 km 100 ft 230° 230° 7 kt METAR EGQS 130220Z AUTO 23007KT 4100 BR OVC001/// 14/13 Q1019
02:50
L
14 °C 1.5 km 100 ft 240° 240° 6 kt METAR EGQS 130150Z 24006KT 1500 BR OVC001 14/14 Q1020 RMK RED
02:20
L
14 °C 3.4 km 200 ft 240° 240° 6 kt METAR EGQS 130120Z AUTO 24006KT 3400 BR OVC002/// 14/14 Q1020
01:50
L
14 °C 3 km 200 ft 230° 230° 7 kt METAR EGQS 130050Z 23007KT 3000 BR OVC002 14/14 Q1020 RMK AMB
01:20
L
14 °C 10 km+ 200 ft 240° 240° 7 kt METAR EGQS 130020Z AUTO 24007KT 9999 OVC002/// 14/14 Q1020
00:50
L
15 °C 10 km+ 300 ft 210° 210° 7 kt METAR EGQS 122350Z 21007KT 9999 OVC003 15/14 Q1020 RMK YLO2
00:20
L
15 °C 10 km+ 300 ft 230° 230° 8 kt METAR EGQS 122320Z AUTO 23008KT 9999 OVC003/// 15/14 Q1020

August 12, 2022

Time Code Weather Temp. Visibility Ceiling Wind METAR/SPECI
23:50
L
15 °C 8 km 300 ft 220° 220° 9 kt METAR EGQS 122250Z 22009KT 8000 BR OVC003 15/14 Q1020 RMK YLO2
23:20
L
15 °C 10 km+ 300 ft 220° 220° 10 kt METAR EGQS 122220Z AUTO 22010KT 9999 OVC003/// 15/14 Q1020
22:50
L
15 °C 8 km 300 ft 230° 230° 10 kt METAR EGQS 122150Z 23010KT 8000 BR OVC003 15/14 Q1020 RMK YLO2
22:14
L
15 °C 8 km 300 ft 220° 220° 10 kt METAR EGQS 122114Z 22010KT 8000 BR BKN003 ////// 15/14 Q1020 RMK YLO2
21:50
V
15 °C 10 km+ - 230° 230° 8 kt METAR EGQS 122050Z 23008KT 9999 FEW003 SCT250 15/14 Q1020 RMK BLU
20:50
V
16 °C 10 km+ 25,000 ft 230° 230° 8 kt METAR EGQS 121950Z 23008KT 9999 FEW005 BKN250 16/14 Q1020 RMK BLU
19:50
V
19 °C 10 km+ 25,000 ft 110° 110° 6 kt METAR EGQS 121850Z 11006KT 9999 FEW007 BKN250 19/15 Q1019 RMK BLU
18:50
V
18 °C 10 km+ 25,000 ft 080° 080° 10 kt METAR EGQS 121750Z 08010KT 9999 FEW036 BKN250 18/15 Q1020 RMK BLU
17:50
V
19 °C 10 km+ 25,000 ft 080° 080° 13 kt METAR EGQS 121650Z 08013KT 9999 FEW037 BKN250 19/15 Q1020 RMK BLU
16:50
V
18 °C 10 km+ - 070° 070° 13 kt METAR EGQS 121550Z 07013KT 9999 FEW048 18/14 Q1020 RMK BLU
15:50
V
18 °C 10 km+ - 080° 080° 16 kt METAR EGQS 121450Z 08016KT 9999 FEW040 18/15 Q1021 NOSIG RMK BLU BLU
14:50
V
18 °C 10 km+ - 070° 070° 14 kt METAR EGQS 121350Z 07014KT 9999 FEW004 18/14 Q1021 NOSIG RMK BLU BLU
13:50
V
17 °C 10 km+ 5,200 ft 080° 080° 14 kt METAR EGQS 121250Z 08014KT 9999 FEW040 BKN052 17/14 Q1021 NOSIG RMK BLU BLU
12:50
V
17 °C 10 km+ 4,700 ft 080° 080° 13 kt METAR EGQS 121150Z 08013KT 9999 FEW010 BKN047 17/14 Q1022 NOSIG RMK BLU BLU
11:50
V
17 °C 10 km+ 4,300 ft 080° 080° 12 kt METAR EGQS 121050Z 08012KT 9999 FEW004 BKN043 17/14 Q1022 NOSIG RMK BLU BLU
10:50
V
16 °C 10 km+ 3,400 ft 080° 080° 12 kt METAR EGQS 120950Z 08012KT 9999 FEW004 BKN034 16/14 Q1023 NOSIG RMK BLU BLU
10:20
M
16 °C 10 km+ 2,700 ft 080° 080° 11 kt METAR EGQS 120920Z 08011KT 9999 FEW004 BKN027 16/14 Q1023 NOSIG RMK BLU BLU
09:50
V
16 °C 10 km+ 3,300 ft 090° 090° 12 kt METAR EGQS 120850Z 09012KT 9999 FEW004 BKN033 16/14 Q1023 NOSIG RMK BLU BLU
09:20
V
16 °C 10 km+ 3,000 ft 090° 090° 11 kt METAR EGQS 120820Z 09011KT 9999 FEW004 BKN030 16/14 Q1023 NOSIG RMK BLU BLU
08:50
V
16 °C 10 km+ 3,000 ft 080° 080° 10 kt METAR EGQS 120750Z 08010KT 9999 FEW004 BKN030 16/14 Q1023 NOSIG RMK BLU BLU
08:20
M
16 °C 10 km+ 2,800 ft 080° 080° 9 kt METAR EGQS 120720Z 08009KT 9999 FEW004 BKN028 16/14 Q1023 TEMPO SCT004 RMK BLU TEMPO YLO2
07:50
M
15 °C 10 km+ 2,700 ft 080° 080° 10 kt METAR EGQS 120650Z 08010KT 9999 FEW004 BKN027 15/14 Q1023 TEMPO SCT004 RMK BLU TEMPO YLO2
07:40
M
15 °C 10 km+ 2,700 ft 070° 070° 9 kt METAR EGQS 120640Z 07009KT 9999 FEW004 OVC027 15/14 Q1023 TEMPO SCT004 RMK BLU TEMPO YLO2
07:36
M
15 °C 10 km+ 2,700 ft 070° 070° 8 kt METAR EGQS 120636Z 07008KT 9999 FEW004 OVC027 15/14 Q1023 TEMPO SCT004 RMK BLU TEMPO YLO2
06:50
L
15 °C 10 km+ 400 ft 070° 070° 9 kt METAR EGQS 120550Z 07009KT 9999 -DZ BKN004 BKN026 15/14 Q1023 RMK YLO2
Older data

We and third parties follow your internet behavior on our website with cookies. If you continue, we assume you agree with our cookie policy. Learn more